메인 페이지
METAR-TAF:

METAR-TAF

공항 :

진나 국제공항

카라치, 파키스탄

위도: 24-54N, 경도: 067-08E, 고도: 21m

현재 날씨관측

예보는 41분 전, 04:25시(UTC)에 발표되었습니다.
북북동4kt
온도 26°C
습도 24%
기압 1017 hPa
시정: 2500m
연무

METAR: OPKC 150425Z 03004KT 2500 HZ NSC 26/04 Q1017 NOSIG

시각: 10:06 (05:06 UTC)

예보

예보는 7 시간 6분 전, 22:00시(UTC)에 발표되었습니다.
예보 대상 시간: 15일 00시부터 16일 06시까지 (UTC)
동북동8kt
시정: 5000m
연무
일시적
15일 00시부터 15일 04시까지 (UTC)
북북서5kt
시정: 2000m
연기
시부터 (UTC)
북북동5kt
시정: 3000m
연기
일시적
16일 00시부터 16일 04시까지 (UTC)
북북서5kt
시정: 2000m
연기

TAF: OPKC 142200Z 1500/1606 06008KT 5000 HZ NSC TEMPO 1500/1504 33005KT 2000 FU NSC FM 151800Z 03005KT 3000 FU NSC TEMPO 1600/1604 33005KT 2000 FU NSC

4,000개 이상의 공항 관측 자료 및 예보 (METAR 및 TAF 보고).

지도상에서 검색 가능한 기상관측소가 노란 점과 빨간 점으로 표시되어 있습니다.

기상관측소 명을 보려면 표시 위로 마우스를 이동하세요.

날씨 관측과 예보를 보려면 클릭하세요.

지도 변경 : 확대하려면 엑스 표시가 있는 녹색 버튼, 축소하려면 빼기 표시가 있는 녹색 버튼, 다음 페이지의 지도를 보려면 녹색 화살표를 클릭하세요.


METAR-TAF: